sensor_id;sensor_type;location;lat;lon;timestamp;pressure;altitude;pressure_sealevel;temperature;humidity
43450;BME280;29041;42.266;23.110;2024-02-26T00:01:31;95330.47;;;6.55;100.00
43450;BME280;29041;42.266;23.110;2024-02-26T00:04:19;95366.97;;;6.77;100.00
43450;BME280;29041;42.266;23.110;2024-02-26T00:07:07;95357.88;;;6.46;100.00
43450;BME280;29041;42.266;23.110;2024-02-26T00:09:54;95352.47;;;6.15;100.00
43450;BME280;29041;42.266;23.110;2024-02-26T00:12:43;95359.28;;;6.21;100.00
43450;BME280;29041;42.266;23.110;2024-02-26T00:15:30;95338.66;;;6.35;100.00
43450;BME280;29041;42.266;23.110;2024-02-26T00:18:17;95350.66;;;6.24;100.00
43450;BME280;29041;42.266;23.110;2024-02-26T00:21:05;95345.63;;;6.23;100.00
43450;BME280;29041;42.266;23.110;2024-02-26T00:23:52;95329.50;;;6.59;100.00
43450;BME280;29041;42.266;23.110;2024-02-26T00:26:40;95329.09;;;6.66;100.00
43450;BME280;29041;42.266;23.110;2024-02-26T00:29:29;95332.25;;;6.37;100.00
43450;BME280;29041;42.266;23.110;2024-02-26T00:32:16;95335.47;;;6.25;100.00
43450;BME280;29041;42.266;23.110;2024-02-26T00:35:04;95329.16;;;6.21;100.00
43450;BME280;29041;42.266;23.110;2024-02-26T00:37:51;95338.00;;;6.07;100.00
43450;BME280;29041;42.266;23.110;2024-02-26T00:40:39;95339.22;;;5.87;100.00
43450;BME280;29041;42.266;23.110;2024-02-26T00:43:26;95321.31;;;5.79;100.00
43450;BME280;29041;42.266;23.110;2024-02-26T00:46:15;95340.00;;;6.24;100.00
43450;BME280;29041;42.266;23.110;2024-02-26T00:49:02;95326.22;;;5.99;100.00
43450;BME280;29041;42.266;23.110;2024-02-26T00:51:50;95328.63;;;5.96;100.00
43450;BME280;29041;42.266;23.110;2024-02-26T00:54:37;95329.94;;;5.98;100.00
43450;BME280;29041;42.266;23.110;2024-02-26T00:57:25;95327.53;;;5.97;100.00
43450;BME280;29041;42.266;23.110;2024-02-26T01:00:14;95312.78;;;5.91;100.00
43450;BME280;29041;42.266;23.110;2024-02-26T01:03:03;95321.25;;;6.07;100.00
43450;BME280;29041;42.266;23.110;2024-02-26T01:05:50;95319.09;;;5.95;100.00
43450;BME280;29041;42.266;23.110;2024-02-26T01:08:37;95319.38;;;5.93;100.00
43450;BME280;29041;42.266;23.110;2024-02-26T01:11:25;95309.19;;;5.95;100.00
43450;BME280;29041;42.266;23.110;2024-02-26T01:14:12;95314.78;;;6.08;100.00
43450;BME280;29041;42.266;23.110;2024-02-26T01:17:00;95317.41;;;5.99;100.00
43450;BME280;29041;42.266;23.110;2024-02-26T01:19:49;95312.59;;;5.87;100.00
43450;BME280;29041;42.266;23.110;2024-02-26T01:22:37;95298.78;;;5.85;100.00
43450;BME280;29041;42.266;23.110;2024-02-26T01:25:24;95298.19;;;5.88;100.00
43450;BME280;29041;42.266;23.110;2024-02-26T01:28:11;95311.00;;;6.00;100.00
43450;BME280;29041;42.266;23.110;2024-02-26T01:30:58;95297.06;;;6.03;100.00
43450;BME280;29041;42.266;23.110;2024-02-26T01:33:46;95284.69;;;6.07;100.00
43450;BME280;29041;42.266;23.110;2024-02-26T01:36:34;95282.75;;;6.22;100.00
43450;BME280;29041;42.266;23.110;2024-02-26T01:39:21;95284.09;;;6.10;100.00
43450;BME280;29041;42.266;23.110;2024-02-26T01:42:08;95285.53;;;6.39;100.00
43450;BME280;29041;42.266;23.110;2024-02-26T01:44:56;95282.13;;;6.47;100.00
43450;BME280;29041;42.266;23.110;2024-02-26T01:47:43;95280.38;;;6.51;100.00
43450;BME280;29041;42.266;23.110;2024-02-26T01:50:30;95264.66;;;6.41;100.00
43450;BME280;29041;42.266;23.110;2024-02-26T01:53:21;95257.16;;;6.52;100.00
43450;BME280;29041;42.266;23.110;2024-02-26T01:56:09;95263.69;;;6.37;100.00
43450;BME280;29041;42.266;23.110;2024-02-26T01:58:57;95264.63;;;6.73;100.00
43450;BME280;29041;42.266;23.110;2024-02-26T02:01:44;95248.22;;;6.48;100.00
43450;BME280;29041;42.266;23.110;2024-02-26T02:04:35;95278.50;;;6.52;100.00
43450;BME280;29041;42.266;23.110;2024-02-26T02:07:23;95271.38;;;6.39;100.00
43450;BME280;29041;42.266;23.110;2024-02-26T02:10:12;95277.78;;;6.29;100.00
43450;BME280;29041;42.266;23.110;2024-02-26T02:12:59;95272.22;;;6.16;100.00
43450;BME280;29041;42.266;23.110;2024-02-26T02:15:47;95268.47;;;5.95;100.00
43450;BME280;29041;42.266;23.110;2024-02-26T02:18:34;95282.47;;;6.00;100.00
43450;BME280;29041;42.266;23.110;2024-02-26T02:21:23;95288.97;;;5.94;100.00
43450;BME280;29041;42.266;23.110;2024-02-26T02:24:10;95282.31;;;5.83;100.00
43450;BME280;29041;42.266;23.110;2024-02-26T02:26:57;95284.69;;;5.84;100.00
43450;BME280;29041;42.266;23.110;2024-02-26T02:29:45;95289.50;;;5.82;100.00
43450;BME280;29041;42.266;23.110;2024-02-26T02:32:32;95277.78;;;6.06;100.00
43450;BME280;29041;42.266;23.110;2024-02-26T02:35:20;95295.69;;;5.92;100.00
43450;BME280;29041;42.266;23.110;2024-02-26T02:38:08;95288.19;;;5.94;100.00
43450;BME280;29041;42.266;23.110;2024-02-26T02:40:55;95287.16;;;5.81;100.00
43450;BME280;29041;42.266;23.110;2024-02-26T02:43:42;95271.66;;;5.83;100.00
43450;BME280;29041;42.266;23.110;2024-02-26T02:46:30;95276.34;;;6.00;100.00
43450;BME280;29041;42.266;23.110;2024-02-26T02:49:19;95258.78;;;5.99;100.00
43450;BME280;29041;42.266;23.110;2024-02-26T02:52:06;95267.06;;;6.20;100.00
43450;BME280;29041;42.266;23.110;2024-02-26T02:54:55;95285.47;;;6.08;100.00
43450;BME280;29041;42.266;23.110;2024-02-26T02:57:42;95284.75;;;6.16;100.00
43450;BME280;29041;42.266;23.110;2024-02-26T03:00:30;95280.56;;;6.24;100.00
43450;BME280;29041;42.266;23.110;2024-02-26T03:03:17;95263.56;;;6.11;100.00
43450;BME280;29041;42.266;23.110;2024-02-26T03:06:04;95278.09;;;6.05;100.00
43450;BME280;29041;42.266;23.110;2024-02-26T03:08:52;95275.31;;;6.10;100.00
43450;BME280;29041;42.266;23.110;2024-02-26T03:11:41;95275.63;;;6.08;100.00
43450;BME280;29041;42.266;23.110;2024-02-26T03:14:29;95278.47;;;6.12;100.00
43450;BME280;29041;42.266;23.110;2024-02-26T03:17:16;95270.59;;;6.07;100.00
43450;BME280;29041;42.266;23.110;2024-02-26T03:20:04;95259.06;;;5.97;100.00
43450;BME280;29041;42.266;23.110;2024-02-26T03:22:54;95267.66;;;5.94;100.00
43450;BME280;29041;42.266;23.110;2024-02-26T03:25:41;95267.00;;;5.88;100.00
43450;BME280;29041;42.266;23.110;2024-02-26T03:28:30;95254.03;;;5.96;100.00
43450;BME280;29041;42.266;23.110;2024-02-26T03:31:18;95247.34;;;6.30;100.00
43450;BME280;29041;42.266;23.110;2024-02-26T03:34:07;95254.25;;;6.31;100.00
43450;BME280;29041;42.266;23.110;2024-02-26T03:36:54;95244.16;;;6.19;100.00
43450;BME280;29041;42.266;23.110;2024-02-26T03:39:41;95237.19;;;6.32;100.00
43450;BME280;29041;42.266;23.110;2024-02-26T03:42:29;95243.81;;;6.43;100.00
43450;BME280;29041;42.266;23.110;2024-02-26T03:45:17;95238.56;;;6.29;100.00
43450;BME280;29041;42.266;23.110;2024-02-26T03:48:05;95229.97;;;6.32;100.00
43450;BME280;29041;42.266;23.110;2024-02-26T03:50:53;95241.09;;;6.34;100.00
43450;BME280;29041;42.266;23.110;2024-02-26T03:53:40;95227.44;;;6.27;100.00
43450;BME280;29041;42.266;23.110;2024-02-26T03:56:27;95235.72;;;6.26;100.00
43450;BME280;29041;42.266;23.110;2024-02-26T03:59:19;95240.41;;;6.20;100.00
43450;BME280;29041;42.266;23.110;2024-02-26T04:02:10;95233.69;;;6.23;100.00
43450;BME280;29041;42.266;23.110;2024-02-26T04:04:58;95243.19;;;6.46;100.00
43450;BME280;29041;42.266;23.110;2024-02-26T04:07:45;95233.81;;;6.58;100.00
43450;BME280;29041;42.266;23.110;2024-02-26T04:10:32;95234.44;;;6.55;100.00
43450;BME280;29041;42.266;23.110;2024-02-26T04:13:20;95231.22;;;6.35;100.00
43450;BME280;29041;42.266;23.110;2024-02-26T04:16:08;95219.16;;;6.06;100.00
43450;BME280;29041;42.266;23.110;2024-02-26T04:18:56;95226.56;;;6.09;100.00
43450;BME280;29041;42.266;23.110;2024-02-26T04:21:43;95208.13;;;6.30;100.00
43450;BME280;29041;42.266;23.110;2024-02-26T04:24:31;95221.00;;;6.28;100.00
43450;BME280;29041;42.266;23.110;2024-02-26T04:27:18;95227.81;;;6.12;100.00
43450;BME280;29041;42.266;23.110;2024-02-26T04:30:08;95215.00;;;6.63;100.00
43450;BME280;29041;42.266;23.110;2024-02-26T04:32:55;95214.66;;;6.56;100.00
43450;BME280;29041;42.266;23.110;2024-02-26T04:35:46;95172.06;;;6.24;100.00
43450;BME280;29041;42.266;23.110;2024-02-26T04:38:33;95195.44;;;6.27;100.00
43450;BME280;29041;42.266;23.110;2024-02-26T04:41:21;95187.72;;;6.75;100.00
43450;BME280;29041;42.266;23.110;2024-02-26T04:44:08;95209.13;;;6.43;100.00
43450;BME280;29041;42.266;23.110;2024-02-26T04:46:55;95201.31;;;6.47;100.00
43450;BME280;29041;42.266;23.110;2024-02-26T04:49:48;95207.06;;;6.00;100.00
43450;BME280;29041;42.266;23.110;2024-02-26T04:52:37;95222.56;;;6.29;100.00
43450;BME280;29041;42.266;23.110;2024-02-26T04:55:24;95223.72;;;6.46;100.00
43450;BME280;29041;42.266;23.110;2024-02-26T04:58:12;95221.22;;;6.49;100.00
43450;BME280;29041;42.266;23.110;2024-02-26T05:00:59;95226.00;;;6.21;100.00
43450;BME280;29041;42.266;23.110;2024-02-26T05:03:46;95215.94;;;6.18;100.00
43450;BME280;29041;42.266;23.110;2024-02-26T05:06:36;95231.53;;;6.02;100.00
43450;BME280;29041;42.266;23.110;2024-02-26T05:09:25;95217.22;;;5.98;100.00
43450;BME280;29041;42.266;23.110;2024-02-26T05:12:12;95250.38;;;6.37;100.00
43450;BME280;29041;42.266;23.110;2024-02-26T05:14:59;95239.00;;;6.23;100.00
43450;BME280;29041;42.266;23.110;2024-02-26T05:17:46;95253.44;;;6.22;100.00
43450;BME280;29041;42.266;23.110;2024-02-26T05:20:33;95241.19;;;6.21;100.00
43450;BME280;29041;42.266;23.110;2024-02-26T05:23:21;95253.53;;;6.39;100.00
43450;BME280;29041;42.266;23.110;2024-02-26T05:26:10;95254.38;;;6.26;100.00
43450;BME280;29041;42.266;23.110;2024-02-26T05:28:57;95255.34;;;6.30;100.00
43450;BME280;29041;42.266;23.110;2024-02-26T05:31:45;95254.38;;;6.26;100.00
43450;BME280;29041;42.266;23.110;2024-02-26T05:34:32;95258.28;;;6.19;100.00
43450;BME280;29041;42.266;23.110;2024-02-26T05:37:20;95268.97;;;6.60;100.00
43450;BME280;29041;42.266;23.110;2024-02-26T05:40:10;95268.56;;;6.75;100.00
43450;BME280;29041;42.266;23.110;2024-02-26T05:43:01;95273.44;;;6.42;100.00
43450;BME280;29041;42.266;23.110;2024-02-26T05:45:48;95273.19;;;6.21;100.00
43450;BME280;29041;42.266;23.110;2024-02-26T05:48:36;95281.53;;;6.28;100.00
43450;BME280;29041;42.266;23.110;2024-02-26T05:51:23;95285.34;;;6.35;100.00
43450;BME280;29041;42.266;23.110;2024-02-26T05:54:10;95275.44;;;6.36;100.00
43450;BME280;29041;42.266;23.110;2024-02-26T05:56:59;95286.09;;;6.27;100.00
43450;BME280;29041;42.266;23.110;2024-02-26T05:59:48;95294.25;;;6.31;100.00
43450;BME280;29041;42.266;23.110;2024-02-26T06:02:35;95284.25;;;6.37;100.00
43450;BME280;29041;42.266;23.110;2024-02-26T06:05:22;95284.19;;;6.59;100.00
43450;BME280;29041;42.266;23.110;2024-02-26T06:08:09;95277.16;;;6.72;100.00
43450;BME280;29041;42.266;23.110;2024-02-26T06:10:56;95283.75;;;6.66;100.00
43450;BME280;29041;42.266;23.110;2024-02-26T06:13:43;95279.50;;;6.65;100.00
43450;BME280;29041;42.266;23.110;2024-02-26T06:16:32;95271.06;;;6.72;100.00
43450;BME280;29041;42.266;23.110;2024-02-26T06:19:20;95268.16;;;7.08;100.00
43450;BME280;29041;42.266;23.110;2024-02-26T06:22:07;95273.66;;;7.12;100.00
43450;BME280;29041;42.266;23.110;2024-02-26T06:24:55;95269.72;;;6.92;100.00
43450;BME280;29041;42.266;23.110;2024-02-26T06:27:42;95272.56;;;7.04;100.00
43450;BME280;29041;42.266;23.110;2024-02-26T06:30:29;95279.66;;;7.18;100.00
43450;BME280;29041;42.266;23.110;2024-02-26T06:33:29;95288.00;;;7.34;100.00
43450;BME280;29041;42.266;23.110;2024-02-26T06:36:17;95285.19;;;7.47;100.00
43450;BME280;29041;42.266;23.110;2024-02-26T06:39:04;95275.59;;;7.46;100.00
43450;BME280;29041;42.266;23.110;2024-02-26T06:41:51;95275.00;;;7.41;100.00
43450;BME280;29041;42.266;23.110;2024-02-26T06:44:44;95267.44;;;7.25;100.00
43450;BME280;29041;42.266;23.110;2024-02-26T06:47:31;95280.78;;;7.34;100.00
43450;BME280;29041;42.266;23.110;2024-02-26T06:50:19;95285.81;;;7.62;100.00
43450;BME280;29041;42.266;23.110;2024-02-26T06:53:07;95296.19;;;7.90;100.00
43450;BME280;29041;42.266;23.110;2024-02-26T06:55:54;95292.13;;;7.66;100.00
43450;BME280;29041;42.266;23.110;2024-02-26T06:58:41;95253.44;;;7.37;100.00
43450;BME280;29041;42.266;23.110;2024-02-26T07:01:28;95308.63;;;7.86;100.00
43450;BME280;29041;42.266;23.110;2024-02-26T07:04:16;95309.06;;;8.05;100.00
43450;BME280;29041;42.266;23.110;2024-02-26T07:07:05;95302.28;;;8.25;100.00
43450;BME280;29041;42.266;23.110;2024-02-26T07:09:52;95313.28;;;8.33;100.00
43450;BME280;29041;42.266;23.110;2024-02-26T07:12:40;95319.72;;;8.40;100.00
43450;BME280;29041;42.266;23.110;2024-02-26T07:15:27;95309.81;;;8.50;100.00
43450;BME280;29041;42.266;23.110;2024-02-26T07:18:14;95317.97;;;8.62;100.00
43450;BME280;29041;42.266;23.110;2024-02-26T07:21:02;95329.25;;;8.77;100.00
43450;BME280;29041;42.266;23.110;2024-02-26T07:23:50;95327.50;;;8.81;100.00
43450;BME280;29041;42.266;23.110;2024-02-26T07:26:37;95321.19;;;8.85;100.00
43450;BME280;29041;42.266;23.110;2024-02-26T07:29:25;95325.56;;;8.90;100.00
43450;BME280;29041;42.266;23.110;2024-02-26T07:32:12;95307.38;;;8.75;100.00
43450;BME280;29041;42.266;23.110;2024-02-26T07:34:59;95323.94;;;9.07;100.00
43450;BME280;29041;42.266;23.110;2024-02-26T07:37:48;95322.09;;;8.98;100.00
43450;BME280;29041;42.266;23.110;2024-02-26T07:40:37;95330.75;;;9.25;100.00
43450;BME280;29041;42.266;23.110;2024-02-26T07:43:24;95311.97;;;9.34;100.00
43450;BME280;29041;42.266;23.110;2024-02-26T07:46:11;95330.44;;;9.57;100.00
43450;BME280;29041;42.266;23.110;2024-02-26T07:48:58;95320.59;;;9.10;100.00
43450;BME280;29041;42.266;23.110;2024-02-26T07:51:45;95318.66;;;9.49;100.00
43450;BME280;29041;42.266;23.110;2024-02-26T07:54:32;95322.28;;;9.53;100.00
43450;BME280;29041;42.266;23.110;2024-02-26T07:57:21;95296.03;;;9.38;100.00
43450;BME280;29041;42.266;23.110;2024-02-26T08:00:09;95303.91;;;9.64;100.00
43450;BME280;29041;42.266;23.110;2024-02-26T08:02:56;95318.00;;;9.73;100.00
43450;BME280;29041;42.266;23.110;2024-02-26T08:05:44;95315.28;;;9.82;100.00
43450;BME280;29041;42.266;23.110;2024-02-26T08:08:31;95280.09;;;9.41;100.00
43450;BME280;29041;42.266;23.110;2024-02-26T08:11:18;95308.69;;;10.13;100.00
43450;BME280;29041;42.266;23.110;2024-02-26T08:14:07;95307.81;;;9.66;100.00
43450;BME280;29041;42.266;23.110;2024-02-26T08:16:54;95295.66;;;9.48;100.00
43450;BME280;29041;42.266;23.110;2024-02-26T08:19:41;95305.72;;;9.93;100.00
43450;BME280;29041;42.266;23.110;2024-02-26T08:22:28;95293.88;;;10.28;100.00
43450;BME280;29041;42.266;23.110;2024-02-26T08:25:15;95309.25;;;9.85;100.00
43450;BME280;29041;42.266;23.110;2024-02-26T08:28:03;95314.78;;;10.56;100.00
43450;BME280;29041;42.266;23.110;2024-02-26T08:30:52;95310.88;;;10.53;100.00
43450;BME280;29041;42.266;23.110;2024-02-26T08:33:39;95315.06;;;10.08;100.00
43450;BME280;29041;42.266;23.110;2024-02-26T08:36:27;95314.75;;;10.22;100.00
43450;BME280;29041;42.266;23.110;2024-02-26T08:39:14;95296.91;;;10.26;100.00
43450;BME280;29041;42.266;23.110;2024-02-26T08:42:03;95293.03;;;10.36;100.00
43450;BME280;29041;42.266;23.110;2024-02-26T08:44:50;95307.53;;;10.56;100.00
43450;BME280;29041;42.266;23.110;2024-02-26T08:47:39;95307.88;;;10.79;100.00
43450;BME280;29041;42.266;23.110;2024-02-26T08:50:26;95303.97;;;10.77;100.00
43450;BME280;29041;42.266;23.110;2024-02-26T08:53:13;95293.78;;;10.70;100.00
43450;BME280;29041;42.266;23.110;2024-02-26T08:56:00;95294.13;;;10.81;100.00
43450;BME280;29041;42.266;23.110;2024-02-26T08:58:47;95301.41;;;10.68;100.00
43450;BME280;29041;42.266;23.110;2024-02-26T09:01:37;95290.84;;;10.63;100.00
43450;BME280;29041;42.266;23.110;2024-02-26T09:04:25;95285.19;;;10.89;100.00
43450;BME280;29041;42.266;23.110;2024-02-26T09:07:13;95286.06;;;11.18;100.00
43450;BME280;29041;42.266;23.110;2024-02-26T09:10:00;95274.94;;;11.45;100.00
43450;BME280;29041;42.266;23.110;2024-02-26T09:12:47;95279.84;;;11.67;100.00
43450;BME280;29041;42.266;23.110;2024-02-26T09:15:34;95285.97;;;11.15;100.00
43450;BME280;29041;42.266;23.110;2024-02-26T09:18:21;95282.97;;;11.16;100.00
43450;BME280;29041;42.266;23.110;2024-02-26T09:21:10;95285.41;;;11.21;100.00
43450;BME280;29041;42.266;23.110;2024-02-26T09:23:57;95283.84;;;11.08;100.00
43450;BME280;29041;42.266;23.110;2024-02-26T09:26:44;95292.13;;;11.15;100.00
43450;BME280;29041;42.266;23.110;2024-02-26T09:29:31;95288.41;;;11.98;100.00
43450;BME280;29041;42.266;23.110;2024-02-26T09:32:18;95293.78;;;11.85;100.00
43450;BME280;29041;42.266;23.110;2024-02-26T09:35:06;95297.63;;;11.72;100.00
43450;BME280;29041;42.266;23.110;2024-02-26T09:37:55;95303.53;;;11.37;100.00
43450;BME280;29041;42.266;23.110;2024-02-26T09:40:42;95294.34;;;11.91;100.00
43450;BME280;29041;42.266;23.110;2024-02-26T09:43:34;95295.59;;;11.81;100.00
43450;BME280;29041;42.266;23.110;2024-02-26T09:46:22;95302.94;;;12.09;100.00
43450;BME280;29041;42.266;23.110;2024-02-26T09:49:10;95301.06;;;12.26;100.00
43450;BME280;29041;42.266;23.110;2024-02-26T09:51:59;95307.28;;;12.42;100.00
43450;BME280;29041;42.266;23.110;2024-02-26T09:54:49;95304.75;;;12.05;100.00
43450;BME280;29041;42.266;23.110;2024-02-26T09:57:36;95299.28;;;12.01;100.00
43450;BME280;29041;42.266;23.110;2024-02-26T10:00:26;95291.34;;;12.21;100.00
43450;BME280;29041;42.266;23.110;2024-02-26T10:03:16;95295.22;;;12.52;100.00
43450;BME280;29041;42.266;23.110;2024-02-26T10:06:04;95287.13;;;12.08;100.00
43450;BME280;29041;42.266;23.110;2024-02-26T10:08:52;95299.81;;;12.51;100.00
43450;BME280;29041;42.266;23.110;2024-02-26T10:11:41;95292.28;;;12.89;100.00
43450;BME280;29041;42.266;23.110;2024-02-26T10:14:29;95275.59;;;12.67;100.00
43450;BME280;29041;42.266;23.110;2024-02-26T10:17:16;95274.78;;;13.31;100.00
43450;BME280;29041;42.266;23.110;2024-02-26T10:20:13;95265.09;;;13.46;100.00
43450;BME280;29041;42.266;23.110;2024-02-26T10:23:03;95257.78;;;12.79;100.00
43450;BME280;29041;42.266;23.110;2024-02-26T10:25:52;95265.25;;;13.17;100.00
43450;BME280;29041;42.266;23.110;2024-02-26T10:28:43;95247.69;;;12.92;100.00
43450;BME280;29041;42.266;23.110;2024-02-26T10:31:31;95260.78;;;13.25;100.00
43450;BME280;29041;42.266;23.110;2024-02-26T10:34:18;95261.88;;;14.15;100.00
43450;BME280;29041;42.266;23.110;2024-02-26T10:37:05;95262.81;;;13.84;100.00
43450;BME280;29041;42.266;23.110;2024-02-26T10:39:52;95263.69;;;13.52;100.00
43450;BME280;29041;42.266;23.110;2024-02-26T10:42:40;95256.47;;;14.15;100.00
43450;BME280;29041;42.266;23.110;2024-02-26T10:45:29;95255.69;;;13.95;100.00
43450;BME280;29041;42.266;23.110;2024-02-26T10:48:17;95241.00;;;13.92;100.00
43450;BME280;29041;42.266;23.110;2024-02-26T10:51:04;95251.56;;;14.01;100.00
43450;BME280;29041;42.266;23.110;2024-02-26T10:53:55;95254.34;;;14.24;100.00
43450;BME280;29041;42.266;23.110;2024-02-26T10:56:43;95238.91;;;14.68;100.00
43450;BME280;29041;42.266;23.110;2024-02-26T10:59:34;95232.22;;;15.38;100.00
43450;BME280;29041;42.266;23.110;2024-02-26T11:02:23;95201.81;;;16.13;95.74
43450;BME280;29041;42.266;23.110;2024-02-26T11:05:11;95200.91;;;15.98;97.60
43450;BME280;29041;42.266;23.110;2024-02-26T11:07:59;95198.63;;;15.39;99.29
43450;BME280;29041;42.266;23.110;2024-02-26T11:10:47;95200.88;;;16.36;91.43
43450;BME280;29041;42.266;23.110;2024-02-26T11:13:36;95187.00;;;16.04;93.82
43450;BME280;29041;42.266;23.110;2024-02-26T11:16:27;95195.81;;;15.63;92.26
43450;BME280;29041;42.266;23.110;2024-02-26T11:19:18;95203.25;;;16.41;89.25
43450;BME280;29041;42.266;23.110;2024-02-26T11:22:08;95144.84;;;16.02;90.40
43450;BME280;29041;42.266;23.110;2024-02-26T11:25:01;95187.72;;;15.32;96.18
43450;BME280;29041;42.266;23.110;2024-02-26T11:27:52;95152.31;;;14.60;97.46
43450;BME280;29041;42.266;23.110;2024-02-26T11:30:45;95183.63;;;15.80;91.40
43450;BME280;29041;42.266;23.110;2024-02-26T11:33:34;95174.22;;;15.05;92.63
43450;BME280;29041;42.266;23.110;2024-02-26T11:36:23;95180.97;;;15.49;88.47
43450;BME280;29041;42.266;23.110;2024-02-26T11:39:11;95174.72;;;15.45;87.55
43450;BME280;29041;42.266;23.110;2024-02-26T11:42:05;95180.56;;;15.17;88.61
43450;BME280;29041;42.266;23.110;2024-02-26T11:44:54;95184.34;;;15.12;87.79
43450;BME280;29041;42.266;23.110;2024-02-26T11:47:55;95184.53;;;14.96;88.93
43450;BME280;29041;42.266;23.110;2024-02-26T11:50:45;95192.16;;;14.90;88.85
43450;BME280;29041;42.266;23.110;2024-02-26T11:53:34;95192.09;;;14.87;88.38
43450;BME280;29041;42.266;23.110;2024-02-26T11:56:26;95192.19;;;14.67;88.70
43450;BME280;29041;42.266;23.110;2024-02-26T11:59:38;95181.06;;;15.26;86.15
43450;BME280;29041;42.266;23.110;2024-02-26T12:02:55;95179.97;;;15.95;82.65
43450;BME280;29041;42.266;23.110;2024-02-26T12:05:46;95172.03;;;15.79;81.90
43450;BME280;29041;42.266;23.110;2024-02-26T12:08:38;95173.00;;;15.30;84.39
43450;BME280;29041;42.266;23.110;2024-02-26T12:11:27;95167.56;;;15.26;85.75
43450;BME280;29041;42.266;23.110;2024-02-26T12:14:18;95184.25;;;15.35;85.81
43450;BME280;29041;42.266;23.110;2024-02-26T12:17:05;95198.53;;;15.05;85.94
43450;BME280;29041;42.266;23.110;2024-02-26T12:19:54;95193.66;;;14.88;86.42
43450;BME280;29041;42.266;23.110;2024-02-26T12:22:44;95186.81;;;14.71;86.79
43450;BME280;29041;42.266;23.110;2024-02-26T12:25:33;95180.34;;;14.75;87.08
43450;BME280;29041;42.266;23.110;2024-02-26T12:28:20;95177.53;;;14.68;87.82
43450;BME280;29041;42.266;23.110;2024-02-26T12:31:07;95182.00;;;14.84;87.60
43450;BME280;29041;42.266;23.110;2024-02-26T12:33:55;95186.28;;;14.38;89.08
43450;BME280;29041;42.266;23.110;2024-02-26T12:36:42;95174.78;;;14.41;88.53
43450;BME280;29041;42.266;23.110;2024-02-26T12:39:29;95184.28;;;14.58;88.32
43450;BME280;29041;42.266;23.110;2024-02-26T12:42:19;95172.75;;;14.85;86.74
43450;BME280;29041;42.266;23.110;2024-02-26T12:45:07;95181.81;;;14.96;86.71
43450;BME280;29041;42.266;23.110;2024-02-26T12:47:56;95185.03;;;15.05;85.88
43450;BME280;29041;42.266;23.110;2024-02-26T12:50:44;95176.72;;;14.91;86.14
43450;BME280;29041;42.266;23.110;2024-02-26T12:53:32;95179.19;;;15.30;84.98
43450;BME280;29041;42.266;23.110;2024-02-26T12:56:21;95180.84;;;15.12;85.26
43450;BME280;29041;42.266;23.110;2024-02-26T12:59:09;95175.47;;;14.62;87.31
43450;BME280;29041;42.266;23.110;2024-02-26T13:01:56;95171.88;;;14.54;88.04
43450;BME280;29041;42.266;23.110;2024-02-26T13:04:44;95172.50;;;14.43;87.75
43450;BME280;29041;42.266;23.110;2024-02-26T13:07:31;95174.44;;;14.93;85.87
43450;BME280;29041;42.266;23.110;2024-02-26T13:10:19;95183.63;;;14.88;85.70
43450;BME280;29041;42.266;23.110;2024-02-26T13:13:06;95182.63;;;14.50;86.17
43450;BME280;29041;42.266;23.110;2024-02-26T13:16:03;95184.84;;;14.44;86.12
43450;BME280;29041;42.266;23.110;2024-02-26T13:18:52;95179.97;;;14.54;85.76
43450;BME280;29041;42.266;23.110;2024-02-26T13:21:39;95197.44;;;14.37;85.70
43450;BME280;29041;42.266;23.110;2024-02-26T13:24:26;95189.97;;;14.50;85.33
43450;BME280;29041;42.266;23.110;2024-02-26T13:27:21;95200.34;;;14.71;84.82
43450;BME280;29041;42.266;23.110;2024-02-26T13:30:10;95190.78;;;14.54;84.83
43450;BME280;29041;42.266;23.110;2024-02-26T13:33:07;95190.13;;;14.37;84.74
43450;BME280;29041;42.266;23.110;2024-02-26T13:35:55;95200.81;;;14.30;85.74
43450;BME280;29041;42.266;23.110;2024-02-26T13:38:51;95190.69;;;14.70;84.58
43450;BME280;29041;42.266;23.110;2024-02-26T13:41:38;95188.16;;;14.34;84.59
43450;BME280;29041;42.266;23.110;2024-02-26T13:44:27;95205.44;;;14.30;85.05
43450;BME280;29041;42.266;23.110;2024-02-26T13:47:14;95202.78;;;14.10;85.48
43450;BME280;29041;42.266;23.110;2024-02-26T13:50:04;95199.78;;;14.15;85.80
43450;BME280;29041;42.266;23.110;2024-02-26T13:52:51;95204.63;;;14.06;85.36
43450;BME280;29041;42.266;23.110;2024-02-26T13:55:40;95203.59;;;13.91;85.20
43450;BME280;29041;42.266;23.110;2024-02-26T13:58:29;95177.69;;;13.86;85.03
43450;BME280;29041;42.266;23.110;2024-02-26T14:01:16;95206.22;;;13.87;86.17
43450;BME280;29041;42.266;23.110;2024-02-26T14:04:03;95197.75;;;13.89;86.04
43450;BME280;29041;42.266;23.110;2024-02-26T14:06:52;95197.84;;;13.73;86.51
43450;BME280;29041;42.266;23.110;2024-02-26T14:09:39;95197.06;;;13.72;86.89
43450;BME280;29041;42.266;23.110;2024-02-26T14:12:26;95207.41;;;13.90;86.12
43450;BME280;29041;42.266;23.110;2024-02-26T14:15:13;95201.75;;;13.75;86.11
43450;BME280;29041;42.266;23.110;2024-02-26T14:18:01;95199.47;;;13.97;85.47
43450;BME280;29041;42.266;23.110;2024-02-26T14:20:49;95198.69;;;13.77;85.41
43450;BME280;29041;42.266;23.110;2024-02-26T14:23:38;95210.19;;;13.74;86.21
43450;BME280;29041;42.266;23.110;2024-02-26T14:26:25;95198.69;;;13.57;85.90
43450;BME280;29041;42.266;23.110;2024-02-26T14:29:13;95212.88;;;13.74;85.88
43450;BME280;29041;42.266;23.110;2024-02-26T14:32:00;95203.59;;;13.52;86.31
43450;BME280;29041;42.266;23.110;2024-02-26T14:34:47;95208.63;;;13.53;87.42
43450;BME280;29041;42.266;23.110;2024-02-26T14:37:34;95213.94;;;13.89;85.87